KMBY

Omar N Bradley Airport

Moberly, Missouri, USA
METAR KMBY 101515Z AUTO 24003KT 5SM HZ CLR M03/M06 A3036 RMK AO2
Observed Flight Rules
Dec-10 @ 15:15 UTC (12 minutes ago) Marginal Visual Flight Rules
Wind Visibility Clouds Conditions
240° at 3 knots 5 miles
  • Clear skies
  • Haze
Temperatures Readings
Current -3°C / 27°F
Dewpoint -6°C / 21°F
Humidity 80%
Altimeter 30.36" Hg
Pressure 1028 hPa
Elevation 264
METAR KMBY 101515Z AUTO 24003KT 5SM HZ CLR M03/M06 A3036 RMK AO2
Observed Flight Rules
Dec-10 @ 15:15 UTC
(12 minutes ago)
MVFR
Wind Visibility
240° at 3 knots 5 miles
Clouds
  • Clear skies
Conditions
  • Haze
Temperature Dewpoint
-3°C / 27°F -6°C / 21°F
Humidity Altimeter Pressure
80% 30.36" Hg 1028 hPa